createdAt,value
2019-05-18T00:03:07.365Z,6.67
2019-05-18T00:05:37.587Z,5.80
2019-05-18T00:08:07.500Z,6.47
2019-05-18T00:10:37.721Z,5.83
2019-05-18T00:15:47.296Z,5.40
2019-05-18T00:18:17.212Z,4.90
2019-05-18T00:20:47.138Z,5.40
2019-05-18T00:23:17.051Z,5.33
2019-05-18T00:28:26.681Z,4.90
2019-05-18T00:30:56.623Z,4.63
2019-05-18T00:33:26.574Z,5.37
2019-05-18T00:38:36.153Z,5.60
2019-05-18T00:43:45.711Z,5.60
2019-05-18T00:51:34.603Z,4.70
2019-05-18T00:56:44.175Z,4.43
2019-05-18T01:01:53.443Z,4.23
2019-05-18T01:04:23.745Z,4.47
2019-05-18T01:06:53.677Z,3.40
2019-05-18T01:09:23.975Z,3.73
2019-05-18T01:14:33.820Z,4.27
2019-05-18T01:17:04.042Z,3.80
2019-05-18T01:19:33.973Z,3.60
2019-05-18T01:24:43.558Z,3.87
2019-05-18T01:29:53.069Z,3.80
2019-05-18T01:32:22.983Z,4.07
2019-05-18T01:34:52.917Z,3.43
2019-05-18T01:37:23.106Z,3.60
2019-05-18T01:39:53.060Z,3.80
2019-05-18T01:42:23.239Z,3.80
2019-05-18T01:44:53.244Z,3.83
2019-05-18T01:47:23.344Z,3.77
2019-05-18T01:49:53.313Z,3.87
2019-05-18T01:52:23.243Z,3.07
2019-05-18T01:57:33.178Z,3.90
2019-05-18T02:00:03.206Z,3.73
2019-05-18T02:02:33.059Z,3.53
2019-05-18T02:05:02.986Z,3.47
2019-05-18T02:07:32.899Z,3.57
2019-05-18T02:10:03.015Z,3.37
2019-05-18T02:20:31.241Z,3.30
2019-05-18T02:23:01.159Z,3.50
2019-05-18T02:25:31.392Z,3.87
2019-05-18T02:30:41.265Z,3.40
2019-05-18T02:35:51.108Z,3.57
2019-05-18T02:41:00.990Z,3.83
2019-05-18T02:46:10.534Z,3.43
2019-05-18T02:51:22.430Z,3.30
2019-05-18T02:56:29.691Z,2.90
2019-05-18T02:58:59.608Z,3.40
2019-05-18T03:01:29.867Z,3.17
2019-05-18T03:04:00.100Z,3.60
2019-05-18T03:09:09.647Z,3.43
2019-05-18T03:11:39.957Z,3.67
2019-05-18T03:14:09.884Z,3.13
2019-05-18T03:16:39.809Z,3.30
2019-05-18T03:19:10.037Z,3.13
2019-05-18T03:21:39.971Z,3.43
2019-05-18T03:24:09.887Z,3.50
2019-05-18T03:26:40.164Z,3.50
2019-05-18T03:31:49.413Z,3.63
2019-05-18T03:34:19.336Z,3.47
2019-05-18T03:39:28.584Z,2.93
2019-05-18T03:44:38.113Z,3.60
2019-05-18T03:49:47.408Z,3.40
2019-05-18T03:54:57.329Z,3.30
2019-05-18T03:57:27.256Z,3.50
2019-05-18T03:59:57.170Z,3.70
2019-05-18T04:02:27.381Z,3.53
2019-05-18T04:10:16.584Z,3.70
2019-05-18T04:12:46.525Z,3.30
2019-05-18T04:17:56.149Z,3.23
2019-05-18T04:20:26.364Z,3.03
2019-05-18T04:22:56.294Z,3.37
2019-05-18T04:25:26.219Z,3.73
2019-05-18T04:30:35.475Z,3.47
2019-05-18T04:33:05.425Z,4.07
2019-05-18T04:35:35.691Z,4.10
2019-05-18T04:38:05.632Z,3.80
2019-05-18T04:40:35.555Z,3.20
2019-05-18T04:43:05.476Z,3.63
2019-05-18T04:48:15.067Z,3.80
2019-05-18T04:50:45.288Z,3.90
2019-05-18T04:53:15.522Z,3.47
2019-05-18T04:58:24.768Z,3.70
2019-05-18T05:00:54.687Z,4.03
2019-05-18T05:03:24.621Z,3.90
2019-05-18T05:05:54.550Z,3.83
2019-05-18T05:08:24.484Z,3.60
2019-05-18T05:10:54.727Z,4.50
2019-05-18T05:13:24.959Z,4.03
2019-05-18T05:15:55.155Z,4.50
2019-05-18T05:21:04.805Z,3.77
2019-05-18T05:23:35.062Z,4.10
2019-05-18T05:26:05.271Z,4.63
2019-05-18T05:31:15.144Z,5.27
2019-05-18T05:33:45.347Z,6.60
2019-05-18T05:36:15.292Z,7.30
2019-05-18T05:38:45.495Z,6.97
2019-05-18T05:41:16.652Z,8.00
2019-05-18T05:43:45.467Z,6.77
2019-05-18T05:48:54.974Z,6.77
2019-05-18T05:51:25.208Z,6.80
2019-05-18T05:56:34.743Z,7.83
2019-05-18T06:01:44.290Z,7.50
2019-05-18T06:09:33.210Z,7.63
2019-05-18T06:12:03.400Z,7.33
2019-05-18T06:14:33.342Z,8.40
2019-05-18T06:17:03.280Z,7.10
2019-05-18T06:19:33.548Z,7.30
2019-05-18T06:22:03.474Z,7.93
2019-05-18T06:24:33.421Z,7.23
2019-05-18T06:27:03.345Z,6.77
2019-05-18T06:32:12.688Z,7.67
2019-05-18T06:34:42.666Z,6.70
2019-05-18T06:42:31.857Z,7.57
2019-05-18T06:45:01.793Z,8.40
2019-05-18T06:47:31.738Z,7.20
2019-05-18T06:50:01.663Z,7.80
2019-05-18T06:52:31.566Z,8.05
2019-05-18T06:55:01.826Z,6.85
2019-05-18T06:57:31.748Z,7.30
2019-05-18T07:00:01.680Z,6.90
2019-05-18T07:02:31.613Z,6.95
2019-05-18T07:05:01.907Z,6.47
2019-05-18T07:10:11.449Z,6.20
2019-05-18T07:12:41.696Z,7.20
2019-05-18T07:15:11.885Z,7.35
2019-05-18T07:17:41.799Z,7.17
2019-05-18T07:22:51.382Z,6.78
2019-05-18T07:28:01.312Z,7.35
2019-05-18T07:33:10.589Z,7.60
2019-05-18T07:35:40.531Z,7.60
2019-05-18T07:38:10.462Z,7.53
2019-05-18T07:40:40.461Z,7.83
2019-05-18T07:45:49.678Z,7.62
2019-05-18T07:48:19.610Z,7.20
2019-05-18T07:50:49.899Z,7.67
2019-05-18T07:53:19.824Z,6.80
2019-05-18T07:58:29.480Z,6.87
2019-05-18T08:00:59.429Z,7.15
2019-05-18T08:03:29.366Z,7.42
2019-05-18T08:05:59.768Z,8.00
2019-05-18T08:11:09.363Z,7.55
2019-05-18T08:13:39.289Z,7.83
2019-05-18T08:16:09.503Z,7.20
2019-05-18T08:18:39.419Z,7.40
2019-05-18T08:23:48.958Z,8.45
2019-05-18T08:26:18.900Z,8.88
2019-05-18T08:28:48.839Z,8.93
2019-05-18T08:31:18.772Z,8.03
2019-05-18T08:36:28.362Z,9.25
2019-05-18T08:38:58.291Z,9.05
2019-05-18T08:41:30.467Z,9.63
2019-05-18T08:44:00.415Z,9.80
2019-05-18T08:46:30.367Z,9.83
2019-05-18T08:51:40.126Z,10.18
2019-05-18T08:54:10.370Z,10.50
2019-05-18T08:56:40.366Z,9.20
2019-05-18T08:59:10.274Z,9.65
2019-05-18T09:01:40.516Z,9.33
2019-05-18T09:06:49.789Z,9.90
2019-05-18T09:09:19.725Z,10.68
2019-05-18T09:11:49.991Z,9.83
2019-05-18T09:16:59.277Z,10.50
2019-05-18T09:19:29.205Z,9.83
2019-05-18T09:24:38.473Z,7.80
2019-05-18T09:27:08.729Z,8.10
2019-05-18T09:29:38.658Z,8.08
2019-05-18T09:40:07.283Z,7.05
2019-05-18T09:45:17.082Z,7.70
2019-05-18T09:50:26.910Z,7.53
2019-05-18T09:55:36.548Z,7.00
2019-05-18T09:58:06.471Z,6.70
2019-05-18T10:00:38.910Z,7.33
2019-05-18T10:03:06.359Z,8.05
2019-05-18T10:05:36.311Z,7.53
2019-05-18T10:08:06.250Z,7.05
2019-05-18T10:10:36.209Z,6.10
2019-05-18T10:13:06.454Z,6.20
2019-05-18T10:20:55.330Z,6.85
2019-05-18T10:23:25.260Z,7.30
2019-05-18T10:31:14.456Z,6.40
2019-05-18T10:36:23.751Z,5.50
2019-05-18T10:38:53.676Z,5.22
2019-05-18T10:46:42.595Z,3.87
2019-05-18T10:49:12.790Z,4.10
2019-05-18T10:54:22.790Z,4.47
2019-05-18T10:56:52.844Z,4.12
2019-05-18T10:59:22.765Z,4.15
2019-05-18T11:01:53.059Z,3.65
2019-05-18T11:04:23.249Z,4.05
2019-05-18T11:09:33.116Z,3.70
2019-05-18T11:12:03.334Z,3.75
2019-05-18T11:14:33.258Z,3.22
2019-05-18T11:17:03.202Z,3.45
2019-05-18T11:22:12.859Z,3.67
2019-05-18T11:24:43.144Z,4.05
2019-05-18T11:29:52.703Z,3.30
2019-05-18T11:32:22.649Z,3.80
2019-05-18T11:34:52.613Z,4.03
2019-05-18T11:37:22.857Z,3.70
2019-05-18T11:39:53.143Z,4.05
2019-05-18T11:42:23.040Z,3.95
2019-05-18T11:47:32.940Z,3.20
2019-05-18T11:50:03.207Z,3.80
2019-05-18T11:55:13.044Z,3.67
2019-05-18T11:57:43.275Z,3.37
2019-05-18T12:00:13.187Z,3.50
2019-05-18T12:02:43.582Z,3.17
2019-05-18T12:07:55.037Z,3.42
2019-05-18T12:10:24.987Z,3.40
2019-05-18T12:12:54.924Z,3.52
2019-05-18T12:15:25.127Z,3.50
2019-05-18T12:17:55.115Z,3.33
2019-05-18T12:23:08.206Z,3.20
2019-05-18T12:25:34.952Z,3.02
2019-05-18T12:28:04.987Z,3.55
2019-05-18T12:30:35.159Z,3.20
2019-05-18T12:33:05.139Z,3.30
2019-05-18T12:35:35.293Z,3.20
2019-05-18T12:38:06.132Z,3.25
2019-05-18T12:40:36.353Z,3.47
2019-05-18T12:45:46.171Z,2.95
2019-05-18T12:48:16.450Z,2.80
2019-05-18T12:50:46.623Z,3.10
2019-05-18T12:58:37.699Z,3.10
2019-05-18T13:01:06.046Z,3.33
2019-05-18T13:03:35.983Z,2.95
2019-05-18T13:08:45.842Z,3.20
2019-05-18T13:16:37.915Z,2.90
2019-05-18T13:19:07.869Z,3.00
2019-05-18T13:24:17.509Z,3.20
2019-05-18T13:29:27.040Z,2.92
2019-05-18T13:31:57.252Z,2.90
2019-05-18T13:34:27.187Z,3.08
2019-05-18T13:36:57.505Z,4.33
2019-05-18T13:39:27.480Z,5.15
2019-05-18T13:41:57.744Z,3.60
2019-05-18T13:44:27.915Z,4.20
2019-05-18T13:46:58.176Z,8.38
2019-05-18T13:49:28.140Z,3.12
2019-05-18T13:51:58.055Z,4.45
2019-05-18T13:54:28.319Z,3.10
2019-05-18T13:56:58.256Z,2.98
2019-05-18T13:59:28.570Z,3.40
2019-05-18T14:01:58.775Z,3.70
2019-05-18T14:04:29.006Z,3.90
2019-05-18T14:09:38.850Z,3.42
2019-05-18T14:12:09.310Z,3.17
2019-05-18T14:14:39.505Z,3.98
2019-05-18T14:19:48.779Z,4.10
2019-05-18T14:22:18.690Z,4.28
2019-05-18T14:24:48.628Z,3.98
2019-05-18T14:27:18.560Z,3.58
2019-05-18T14:29:48.826Z,3.42
2019-05-18T14:34:58.380Z,3.70
2019-05-18T14:37:28.590Z,3.67
2019-05-18T14:45:17.256Z,3.47
2019-05-18T14:47:47.517Z,3.30
2019-05-18T14:55:38.518Z,3.83
2019-05-18T14:58:09.166Z,3.27
2019-05-18T15:00:39.144Z,3.27
2019-05-18T15:03:09.422Z,3.12
2019-05-18T15:08:18.684Z,3.20
2019-05-18T15:10:48.630Z,3.37
2019-05-18T15:13:18.884Z,4.05
2019-05-18T15:15:48.820Z,3.50
2019-05-18T15:23:37.898Z,3.47
2019-05-18T15:26:07.829Z,3.75
2019-05-18T15:31:17.117Z,4.10
2019-05-18T15:33:47.046Z,3.70
2019-05-18T15:36:17.302Z,3.77
2019-05-18T15:38:47.232Z,3.77
2019-05-18T15:46:36.512Z,3.70
2019-05-18T15:49:06.474Z,4.30
2019-05-18T15:51:36.383Z,3.70
2019-05-18T15:54:06.394Z,4.12
2019-05-18T15:56:36.669Z,3.65
2019-05-18T15:59:06.613Z,3.52
2019-05-18T16:01:36.624Z,3.62
2019-05-18T16:06:46.153Z,3.45
2019-05-18T16:09:16.374Z,3.70
2019-05-18T16:11:46.318Z,3.52
2019-05-18T16:14:16.249Z,3.30
2019-05-18T16:16:46.199Z,3.20
2019-05-18T16:19:16.114Z,3.08
2019-05-18T16:21:46.050Z,3.02
2019-05-18T16:24:16.001Z,3.00
2019-05-18T16:26:45.926Z,3.12
2019-05-18T16:29:15.854Z,3.25
2019-05-18T16:31:45.787Z,3.35
2019-05-18T16:34:15.719Z,3.60
2019-05-18T16:36:45.665Z,3.20
2019-05-18T16:39:15.954Z,3.17
2019-05-18T16:41:46.161Z,3.22
2019-05-18T16:44:16.087Z,3.22
2019-05-18T16:46:46.024Z,2.92
2019-05-18T16:49:15.947Z,3.08
2019-05-18T16:51:45.886Z,3.80
2019-05-18T16:54:15.801Z,2.60
2019-05-18T16:56:45.730Z,2.83
2019-05-18T16:59:15.655Z,2.45
2019-05-18T17:01:45.643Z,2.90
2019-05-18T17:04:15.516Z,2.42
2019-05-18T17:06:45.814Z,3.00
2019-05-18T17:09:16.031Z,2.92
2019-05-18T17:11:48.124Z,3.10
2019-05-18T17:14:16.272Z,2.65
2019-05-18T17:16:46.246Z,2.70
2019-05-18T17:19:16.164Z,2.75
2019-05-18T17:21:46.445Z,3.05
2019-05-18T17:24:16.372Z,3.40
2019-05-18T17:26:52.862Z,3.42
2019-05-18T17:29:16.220Z,3.20
2019-05-18T17:34:25.807Z,3.40
2019-05-18T17:36:56.542Z,3.40
2019-05-18T17:39:26.764Z,3.30
2019-05-18T17:41:56.982Z,2.80
2019-05-18T17:47:06.750Z,2.98
2019-05-18T17:49:36.745Z,2.90
2019-05-18T18:02:47.855Z,3.25
2019-05-18T18:05:14.722Z,3.00
2019-05-18T18:07:44.771Z,3.00
2019-05-18T18:10:14.974Z,3.45
2019-05-18T18:12:44.922Z,3.15
2019-05-18T18:15:15.870Z,3.02
2019-05-18T18:20:25.793Z,3.42
2019-05-18T18:22:56.117Z,3.75
2019-05-18T18:25:26.075Z,4.00
2019-05-18T18:27:56.050Z,3.70
2019-05-18T18:33:05.308Z,3.22
2019-05-18T18:35:35.235Z,3.70
2019-05-18T18:38:06.011Z,3.60
2019-05-18T18:40:35.863Z,3.52
2019-05-18T18:43:06.253Z,3.65
2019-05-18T18:45:36.514Z,3.72
2019-05-18T18:48:06.721Z,3.47
2019-05-18T18:53:16.787Z,4.72
2019-05-18T18:55:46.740Z,6.50
2019-05-18T18:58:16.682Z,5.50
2019-05-18T19:00:46.926Z,5.97
2019-05-18T19:03:17.163Z,4.87
2019-05-18T19:05:47.103Z,2.80
2019-05-18T19:10:56.730Z,2.80
2019-05-18T19:13:26.686Z,2.47
2019-05-18T19:15:56.659Z,2.60
2019-05-18T19:18:26.797Z,2.50
2019-05-18T19:20:56.731Z,2.40
2019-05-18T19:23:26.705Z,2.27
2019-05-18T19:25:56.659Z,2.70
2019-05-18T19:28:26.605Z,2.60
2019-05-18T19:30:56.851Z,2.52
2019-05-18T19:33:27.068Z,2.75
2019-05-18T19:38:36.377Z,2.50
2019-05-18T19:41:06.320Z,2.67
2019-05-18T19:43:36.252Z,3.00
2019-05-18T19:46:06.467Z,3.33
2019-05-18T19:51:16.301Z,3.95
2019-05-18T19:53:46.348Z,3.08
2019-05-18T19:56:16.268Z,8.28
2019-05-18T19:58:46.585Z,10.38
2019-05-18T20:03:56.155Z,4.33
2019-05-18T20:06:26.147Z,3.70
2019-05-18T20:08:56.090Z,4.12
2019-05-18T20:11:26.331Z,4.15
2019-05-18T20:13:56.165Z,7.62
2019-05-18T20:16:26.099Z,4.95
2019-05-18T20:18:56.137Z,5.20
2019-05-18T20:21:26.026Z,5.05
2019-05-18T20:23:55.960Z,4.30
2019-05-18T20:26:26.153Z,4.42
2019-05-18T20:28:56.698Z,3.95
2019-05-18T20:31:26.050Z,4.75
2019-05-18T20:36:35.663Z,5.03
2019-05-18T20:39:05.605Z,4.58
2019-05-18T20:41:35.793Z,5.90
2019-05-18T20:46:45.363Z,7.95
2019-05-18T20:49:15.322Z,5.87
2019-05-18T20:51:45.245Z,4.95
2019-05-18T20:54:15.183Z,4.05
2019-05-18T20:56:45.412Z,3.85
2019-05-18T20:59:15.348Z,3.98
2019-05-18T21:01:45.549Z,3.70
2019-05-18T21:06:55.238Z,4.03
2019-05-18T21:09:25.534Z,5.53
2019-05-18T21:11:55.449Z,7.12
2019-05-18T21:14:25.383Z,3.30
2019-05-18T21:19:34.719Z,2.47
2019-05-18T21:22:04.951Z,3.02
2019-05-18T21:24:35.252Z,3.17
2019-05-18T21:27:05.183Z,3.17
2019-05-18T21:29:35.132Z,3.77
2019-05-18T21:34:44.733Z,3.65
2019-05-18T21:37:14.948Z,3.55
2019-05-18T21:39:44.927Z,3.27
2019-05-18T21:42:14.832Z,3.77
2019-05-18T21:47:24.430Z,3.20
2019-05-18T21:49:54.648Z,3.87
2019-05-18T21:52:24.579Z,3.55
2019-05-18T21:54:54.530Z,3.70
2019-05-18T22:00:03.778Z,3.52
2019-05-18T22:02:33.701Z,3.10
2019-05-18T22:05:04.469Z,2.80
2019-05-18T22:07:34.425Z,2.92
2019-05-18T22:10:04.325Z,2.83
2019-05-18T22:12:34.547Z,2.98
2019-05-18T22:15:04.847Z,3.37
2019-05-18T22:17:34.752Z,3.30
2019-05-18T22:20:04.977Z,3.98
2019-05-18T22:25:14.570Z,3.10
2019-05-18T22:27:44.853Z,3.47
2019-05-18T22:30:15.174Z,3.50
2019-05-18T22:32:45.413Z,3.05
2019-05-18T22:37:54.676Z,3.58
2019-05-18T22:40:24.618Z,3.33
2019-05-18T22:48:13.204Z,3.50
2019-05-18T22:53:22.790Z,4.10
2019-05-18T22:58:32.386Z,3.85
2019-05-18T23:01:02.325Z,3.65
2019-05-18T23:03:32.268Z,3.65
2019-05-18T23:06:02.501Z,4.10
2019-05-18T23:11:12.018Z,4.65
2019-05-18T23:13:41.935Z,4.75
2019-05-18T23:16:11.891Z,4.17
2019-05-18T23:21:21.179Z,3.70
2019-05-18T23:26:31.089Z,3.87
2019-05-18T23:31:40.346Z,4.10
2019-05-18T23:34:10.276Z,4.03
2019-05-18T23:36:40.211Z,4.40
2019-05-18T23:39:10.135Z,4.00
2019-05-18T23:44:19.741Z,3.90
2019-05-18T23:46:49.956Z,4.40
2019-05-18T23:49:19.883Z,4.15
2019-05-18T23:51:50.082Z,4.58
2019-05-18T23:54:20.009Z,4.62
2019-05-18T23:59:29.515Z,4.35
